createdAt,value
2022-09-21T00:01:27.390Z,100206.69
2022-09-21T00:03:56.808Z,100208.44
2022-09-21T00:06:25.441Z,100207.56
2022-09-21T00:08:53.089Z,100205.81
2022-09-21T00:11:24.774Z,100215.41
2022-09-21T00:13:55.293Z,100205.81
2022-09-21T00:16:23.794Z,100208.44
2022-09-21T00:18:51.485Z,100205.84
2022-09-21T00:21:19.291Z,100208.47
2022-09-21T00:23:46.880Z,100205.03
2022-09-21T00:26:16.894Z,100202.44
2022-09-21T00:28:44.667Z,100191.06
2022-09-21T00:31:14.484Z,100199.87
2022-09-21T00:33:43.487Z,100200.72
2022-09-21T00:36:14.843Z,100206.75
2022-09-21T00:38:42.548Z,100210.22
2022-09-21T00:41:10.731Z,100217.16
2022-09-21T00:43:43.078Z,100213.66
2022-09-21T00:46:16.209Z,100207.59
2022-09-21T00:48:43.599Z,100215.41
2022-09-21T00:51:11.231Z,100215.41
2022-09-21T00:53:38.788Z,100213.69
2022-09-21T00:56:06.956Z,100214.53
2022-09-21T00:58:40.488Z,100208.41
2022-09-21T01:01:08.095Z,100217.19
2022-09-21T01:03:35.716Z,100223.25
2022-09-21T01:06:03.533Z,100218.91
2022-09-21T01:08:31.498Z,100217.16
2022-09-21T01:11:22.829Z,100213.69
2022-09-21T01:14:08.831Z,100218.06
2022-09-21T01:17:03.686Z,100218.94
2022-09-21T01:19:39.840Z,100217.19
2022-09-21T01:22:33.015Z,100223.31
2022-09-21T01:25:21.858Z,100229.44
2022-09-21T01:28:07.115Z,100225.06
2022-09-21T01:30:36.364Z,100215.50
2022-09-21T01:33:13.973Z,100223.31
2022-09-21T01:35:48.576Z,100225.94
2022-09-21T01:38:22.095Z,100220.75
2022-09-21T01:40:52.924Z,100229.44
2022-09-21T01:43:31.814Z,100225.06
2022-09-21T01:46:02.087Z,100235.53
2022-09-21T01:48:35.140Z,100229.44
2022-09-21T01:51:06.378Z,100237.25
2022-09-21T01:53:49.536Z,100241.59
2022-09-21T01:56:31.061Z,100230.28
2022-09-21T01:59:07.484Z,100235.50
2022-09-21T02:01:52.311Z,100237.25
2022-09-21T02:04:19.932Z,100232.03
2022-09-21T02:06:47.843Z,100226.81
2022-09-21T02:09:15.201Z,100229.38
2022-09-21T02:11:44.861Z,100225.03
2022-09-21T02:14:18.441Z,100232.91
2022-09-21T02:16:58.320Z,100233.78
2022-09-21T02:19:54.323Z,100235.50
2022-09-21T02:22:36.225Z,100232.00
2022-09-21T02:25:10.633Z,100238.97
2022-09-21T02:27:40.934Z,100239.81
2022-09-21T02:30:18.135Z,100241.56
2022-09-21T02:32:51.376Z,100241.53
2022-09-21T02:36:09.903Z,100239.81
2022-09-21T02:38:53.468Z,100239.78
2022-09-21T02:41:28.308Z,100232.84
2022-09-21T02:44:01.428Z,100236.28
2022-09-21T02:46:29.615Z,100241.53
2022-09-21T02:49:01.164Z,100247.66
2022-09-21T02:51:33.912Z,100247.66
2022-09-21T02:54:04.653Z,100242.44
2022-09-21T02:56:32.110Z,100239.84
2022-09-21T02:59:02.152Z,100246.78
2022-09-21T03:01:31.073Z,100244.19
2022-09-21T03:03:58.848Z,100251.16
2022-09-21T03:06:26.424Z,100244.22
2022-09-21T03:08:53.989Z,100245.06
2022-09-21T03:11:21.258Z,100259.88
2022-09-21T03:13:48.554Z,100259.84
2022-09-21T03:16:16.421Z,100265.94
2022-09-21T03:18:44.330Z,100265.91
2022-09-21T03:21:12.250Z,100272.00
2022-09-21T03:23:40.395Z,100274.63
2022-09-21T03:26:08.518Z,100271.16
2022-09-21T03:28:35.875Z,100276.38
2022-09-21T03:31:03.477Z,100277.25
2022-09-21T03:33:30.836Z,100275.47
2022-09-21T03:35:58.179Z,100267.63
2022-09-21T03:38:26.866Z,100273.75
2022-09-21T03:40:57.796Z,100277.19
2022-09-21T03:43:25.465Z,100274.59
2022-09-21T03:45:53.330Z,100272.84
2022-09-21T03:48:21.602Z,100280.69
2022-09-21T03:50:48.946Z,100283.28
2022-09-21T03:53:16.882Z,100283.31
2022-09-21T03:55:44.191Z,100282.41
2022-09-21T03:58:11.478Z,100286.75
2022-09-21T04:00:39.292Z,100286.75
2022-09-21T04:03:06.887Z,100290.22
2022-09-21T04:05:34.450Z,100286.78
2022-09-21T04:08:02.214Z,100289.38
2022-09-21T04:10:33.153Z,100289.41
2022-09-21T04:13:02.067Z,100295.50
2022-09-21T04:15:29.992Z,100299.00
2022-09-21T04:17:57.389Z,100306.81
2022-09-21T04:20:24.710Z,100300.72
2022-09-21T04:22:52.684Z,100305.94
2022-09-21T04:25:20.575Z,100305.97
2022-09-21T04:27:47.910Z,100304.22
2022-09-21T04:30:16.599Z,100305.09
2022-09-21T04:32:44.083Z,100306.84
2022-09-21T04:35:11.347Z,100310.31
2022-09-21T04:37:38.898Z,100306.84
2022-09-21T04:40:07.643Z,100306.81
2022-09-21T04:42:35.011Z,100308.56
2022-09-21T04:45:03.331Z,100312.06
2022-09-21T04:47:31.347Z,100313.78
2022-09-21T04:49:58.674Z,100317.25
2022-09-21T04:52:26.435Z,100319.00
2022-09-21T04:54:53.751Z,100319.00
2022-09-21T04:57:21.067Z,100323.38
2022-09-21T04:59:48.653Z,100332.03
2022-09-21T05:02:15.960Z,100333.78
2022-09-21T05:04:46.397Z,100338.13
2022-09-21T05:07:16.918Z,100340.72
2022-09-21T05:10:02.847Z,100338.13
2022-09-21T05:12:35.963Z,100327.69
2022-09-21T05:15:05.842Z,100332.91
2022-09-21T05:17:35.560Z,100335.53
2022-09-21T05:20:03.723Z,100332.91
2022-09-21T05:22:31.019Z,100328.56
2022-09-21T05:24:58.595Z,100329.44
2022-09-21T05:27:26.082Z,100335.50
2022-09-21T05:29:53.902Z,100338.97
2022-09-21T05:32:41.790Z,100338.97
2022-09-21T05:35:29.124Z,100336.34
2022-09-21T05:38:04.979Z,100345.06
2022-09-21T05:40:33.063Z,100338.13
2022-09-21T05:43:00.887Z,100337.28
2022-09-21T05:45:28.984Z,100347.69
2022-09-21T05:48:19.834Z,100343.34
2022-09-21T05:51:09.042Z,100344.22
2022-09-21T05:54:14.100Z,100348.56
2022-09-21T05:57:05.048Z,100349.41
2022-09-21T06:00:06.361Z,100359.91
2022-09-21T06:02:50.905Z,100359.88
2022-09-21T06:05:18.868Z,100357.28
2022-09-21T06:07:46.153Z,100356.44
2022-09-21T06:10:14.035Z,100349.37
2022-09-21T06:12:42.332Z,100357.19
2022-09-21T06:15:13.680Z,100362.47
2022-09-21T06:17:41.214Z,100365.94
2022-09-21T06:20:09.474Z,100360.72
2022-09-21T06:22:36.755Z,100355.41
2022-09-21T06:25:04.261Z,100356.25
2022-09-21T06:27:31.828Z,100362.25
2022-09-21T06:29:59.154Z,100351.75
2022-09-21T06:32:26.683Z,100362.91
2022-09-21T06:34:54.254Z,100362.03
2022-09-21T06:37:21.584Z,100362.03
2022-09-21T06:39:48.851Z,100357.47
2022-09-21T06:42:16.469Z,100360.88
2022-09-21T06:44:44.271Z,100361.56
2022-09-21T06:47:11.595Z,100357.81
2022-09-21T06:49:42.349Z,100365.06
2022-09-21T06:52:10.137Z,100370.03
2022-09-21T06:54:41.027Z,100373.53
2022-09-21T06:57:08.577Z,100370.81
2022-09-21T06:59:35.896Z,100375.25
2022-09-21T07:02:03.820Z,100377.84
2022-09-21T07:04:31.956Z,100379.00
2022-09-21T07:07:02.633Z,100378.63
2022-09-21T07:12:18.967Z,100380.38
2022-09-21T07:14:46.592Z,100387.94
2022-09-21T07:17:15.735Z,100387.03
2022-09-21T07:19:43.220Z,100385.19
2022-09-21T07:22:10.776Z,100382.72
2022-09-21T07:24:38.064Z,100376.37
2022-09-21T07:27:05.388Z,100380.72
2022-09-21T07:29:32.926Z,100383.50
2022-09-21T07:32:00.296Z,100384.53
2022-09-21T07:34:27.635Z,100384.19
2022-09-21T07:36:55.212Z,100386.66
2022-09-21T07:39:22.504Z,100389.25
2022-09-21T07:41:49.805Z,100391.75
2022-09-21T07:44:17.435Z,100389.87
2022-09-21T07:46:48.220Z,100395.00
2022-09-21T07:49:15.653Z,100401.62
2022-09-21T07:51:43.570Z,100394.34
2022-09-21T07:54:10.989Z,100398.47
2022-09-21T07:56:38.311Z,100395.75
2022-09-21T07:59:06.008Z,100400.16
2022-09-21T08:01:35.164Z,100396.69
2022-09-21T08:04:04.318Z,100393.69
2022-09-21T08:06:33.056Z,100403.22
2022-09-21T08:09:01.342Z,100392.66
2022-09-21T08:11:30.249Z,100400.16
2022-09-21T08:14:00.028Z,100397.19
2022-09-21T08:16:29.079Z,100395.53
2022-09-21T08:19:20.363Z,100399.78
2022-09-21T08:21:54.917Z,100402.16
2022-09-21T08:24:26.668Z,100400.63
2022-09-21T08:26:55.747Z,100392.06
2022-09-21T08:29:25.440Z,100391.72
2022-09-21T08:31:56.207Z,100394.91
2022-09-21T08:34:24.079Z,100384.28
2022-09-21T08:36:55.200Z,100393.63
2022-09-21T08:39:23.943Z,100393.06
2022-09-21T08:42:03.578Z,100388.88
2022-09-21T08:44:48.763Z,100390.88
2022-09-21T08:47:19.918Z,100389.75
2022-09-21T08:49:51.552Z,100395.38
2022-09-21T08:52:19.711Z,100393.09
2022-09-21T08:55:18.700Z,100390.09
2022-09-21T08:57:46.062Z,100395.12
2022-09-21T09:00:15.919Z,100394.34
2022-09-21T09:03:04.224Z,100396.97
2022-09-21T09:05:55.760Z,100407.78
2022-09-21T09:08:58.515Z,100409.66
2022-09-21T09:11:52.752Z,100405.38
2022-09-21T09:14:36.628Z,100404.41
2022-09-21T09:17:19.007Z,100398.22
2022-09-21T09:20:15.075Z,100397.66
2022-09-21T09:22:57.975Z,100396.97
2022-09-21T09:25:25.276Z,100399.91
2022-09-21T09:27:58.863Z,100399.91
2022-09-21T09:30:28.535Z,100393.31
2022-09-21T09:33:02.135Z,100394.06
2022-09-21T09:35:33.311Z,100389.91
2022-09-21T09:38:25.975Z,100401.62
2022-09-21T09:41:05.691Z,100390.56
2022-09-21T09:43:36.240Z,100393.03
2022-09-21T09:46:19.410Z,100393.31
2022-09-21T09:48:58.807Z,100391.19
2022-09-21T09:51:26.823Z,100393.16
2022-09-21T09:53:58.320Z,100390.16
2022-09-21T09:56:25.648Z,100385.56
2022-09-21T09:58:57.407Z,100390.25
2022-09-21T10:01:44.296Z,100382.16
2022-09-21T10:04:13.847Z,100382.28
2022-09-21T10:06:46.098Z,100391.72
2022-09-21T10:09:25.683Z,100384.75
2022-09-21T10:11:57.029Z,100387.41
2022-09-21T10:14:25.819Z,100373.66
2022-09-21T10:16:53.653Z,100375.28
2022-09-21T10:19:23.708Z,100375.91
2022-09-21T10:21:56.352Z,100372.84
2022-09-21T10:24:26.899Z,100377.00
2022-09-21T10:26:56.762Z,100375.03
2022-09-21T10:29:23.968Z,100370.91
2022-09-21T10:32:00.367Z,100366.06
2022-09-21T10:34:30.423Z,100360.28
2022-09-21T10:37:00.114Z,100361.47
2022-09-21T10:39:32.142Z,100354.19
2022-09-21T10:41:59.382Z,100356.06
2022-09-21T10:44:29.648Z,100353.31
2022-09-21T10:46:58.616Z,100352.06
2022-09-21T10:49:27.567Z,100365.63
2022-09-21T10:51:57.537Z,100348.75
2022-09-21T10:54:28.481Z,100352.84
2022-09-21T10:57:03.429Z,100351.63
2022-09-21T10:59:33.210Z,100348.19
2022-09-21T11:02:02.809Z,100346.38
2022-09-21T11:04:39.903Z,100342.78
2022-09-21T11:07:15.580Z,100348.31
2022-09-21T11:09:53.818Z,100345.75
2022-09-21T11:12:43.092Z,100337.91
2022-09-21T11:15:30.798Z,100344.88
2022-09-21T11:18:13.030Z,100350.38
2022-09-21T11:20:49.929Z,100346.09
2022-09-21T11:23:32.689Z,100344.94
2022-09-21T11:26:35.157Z,100338.81
2022-09-21T11:29:08.952Z,100331.78
2022-09-21T11:31:55.187Z,100338.25
2022-09-21T11:34:54.181Z,100331.31
2022-09-21T11:37:30.907Z,100335.53
2022-09-21T11:40:24.586Z,100331.94
2022-09-21T11:43:13.615Z,100333.91
2022-09-21T11:46:05.740Z,100330.38
2022-09-21T11:49:18.223Z,100326.88
2022-09-21T11:52:09.170Z,100323.16
2022-09-21T11:55:18.875Z,100313.81
2022-09-21T11:57:57.105Z,100310.78
2022-09-21T12:00:26.600Z,100311.66
2022-09-21T12:03:16.032Z,100315.84
2022-09-21T12:06:01.729Z,100302.38
2022-09-21T12:09:20.250Z,100286.22
2022-09-21T12:12:02.563Z,100299.69
2022-09-21T12:14:42.571Z,100312.69
2022-09-21T12:17:32.305Z,100302.09
2022-09-21T12:20:15.748Z,100302.25
2022-09-21T12:22:45.403Z,100296.47
2022-09-21T12:25:26.342Z,100287.59
2022-09-21T12:28:20.820Z,100298.31
2022-09-21T12:30:51.368Z,100294.84
2022-09-21T12:33:31.467Z,100281.34
2022-09-21T12:36:07.912Z,100289.59
2022-09-21T12:38:41.035Z,100282.78
2022-09-21T12:41:17.959Z,100290.47
2022-09-21T12:44:00.991Z,100288.03
2022-09-21T12:46:32.332Z,100285.63
2022-09-21T12:49:02.038Z,100308.59
2022-09-21T12:51:40.478Z,100299.81
2022-09-21T12:54:30.936Z,100300.66
2022-09-21T12:57:42.529Z,100307.38
2022-09-21T13:00:11.916Z,100305.78
2022-09-21T13:02:50.789Z,100297.13
2022-09-21T13:05:41.419Z,100284.22
2022-09-21T13:08:17.460Z,100279.97
2022-09-21T13:10:54.705Z,100284.56
2022-09-21T13:13:29.585Z,100278.38
2022-09-21T13:16:04.533Z,100273.53
2022-09-21T13:18:36.402Z,100277.53
2022-09-21T13:21:26.292Z,100271.34
2022-09-21T13:23:57.561Z,100270.09
2022-09-21T13:26:39.032Z,100264.59
2022-09-21T13:29:27.623Z,100265.38
2022-09-21T13:32:11.226Z,100257.78
2022-09-21T13:34:43.326Z,100258.94
2022-09-21T13:37:25.577Z,100249.00
2022-09-21T13:40:16.187Z,100246.31
2022-09-21T13:42:48.538Z,100261.03
2022-09-21T13:45:18.674Z,100246.63
2022-09-21T13:47:48.000Z,100250.28
2022-09-21T13:50:37.116Z,100240.00
2022-09-21T13:53:25.536Z,100239.94
2022-09-21T13:56:02.105Z,100244.16
2022-09-21T13:58:41.090Z,100235.97
2022-09-21T14:01:47.213Z,100241.25
2022-09-21T14:04:25.383Z,100243.94
2022-09-21T14:06:54.198Z,100237.97
2022-09-21T14:09:29.547Z,100234.31
2022-09-21T14:12:01.624Z,100243.19
2022-09-21T14:14:36.043Z,100248.09
2022-09-21T14:17:49.314Z,100253.63
2022-09-21T14:20:32.790Z,100252.88
2022-09-21T14:23:28.394Z,100254.81
2022-09-21T14:25:57.862Z,100256.09
2022-09-21T14:28:34.762Z,100249.28
2022-09-21T14:31:07.211Z,100250.16
2022-09-21T14:34:01.659Z,100248.94
2022-09-21T14:36:38.348Z,100256.16
2022-09-21T14:39:07.859Z,100257.44
2022-09-21T14:41:40.729Z,100259.44
2022-09-21T14:44:19.974Z,100258.34
2022-09-21T14:46:50.849Z,100265.97
2022-09-21T14:49:19.355Z,100257.09
2022-09-21T14:52:12.947Z,100264.75
2022-09-21T14:55:17.174Z,100262.75
2022-09-21T14:57:55.770Z,100257.94
2022-09-21T15:00:35.486Z,100253.09
2022-09-21T15:03:22.219Z,100251.16
2022-09-21T15:05:55.066Z,100257.47
2022-09-21T15:09:09.279Z,100258.41
2022-09-21T15:11:41.061Z,100256.59
2022-09-21T15:14:34.763Z,100260.75
2022-09-21T15:17:19.599Z,100252.34
2022-09-21T15:19:47.170Z,100249.16
2022-09-21T15:22:22.270Z,100253.03
2022-09-21T15:25:02.772Z,100244.66
2022-09-21T15:27:32.915Z,100248.97
2022-09-21T15:30:02.473Z,100248.97
2022-09-21T15:32:36.698Z,100251.84
2022-09-21T15:35:24.717Z,100252.56
2022-09-21T15:37:52.479Z,100258.09
2022-09-21T15:40:24.613Z,100255.34
2022-09-21T15:43:00.862Z,100248.31
2022-09-21T15:45:30.460Z,100259.91
2022-09-21T15:47:58.378Z,100260.38
2022-09-21T15:50:27.297Z,100264.69
2022-09-21T15:52:59.699Z,100269.62
2022-09-21T15:55:30.270Z,100272.97
2022-09-21T15:57:58.120Z,100275.53
2022-09-21T16:00:26.397Z,100278.00
2022-09-21T16:03:19.870Z,100275.19
2022-09-21T16:05:49.924Z,100280.03
2022-09-21T16:08:31.443Z,100286.69
2022-09-21T16:11:14.128Z,100285.22
2022-09-21T16:14:04.706Z,100297.31
2022-09-21T16:16:32.160Z,100295.72
2022-09-21T16:19:00.116Z,100295.47
2022-09-21T16:21:35.139Z,100291.19
2022-09-21T16:24:20.489Z,100295.69
2022-09-21T16:27:03.268Z,100296.28
2022-09-21T16:29:39.297Z,100289.53
2022-09-21T16:32:18.817Z,100289.59
2022-09-21T16:34:48.258Z,100301.56
2022-09-21T16:37:24.371Z,100298.84
2022-09-21T16:39:52.999Z,100293.69
2022-09-21T16:42:21.279Z,100299.91
2022-09-21T16:44:48.928Z,100303.22
2022-09-21T16:47:22.780Z,100308.88
2022-09-21T16:49:50.375Z,100312.53
2022-09-21T16:52:18.120Z,100315.31
2022-09-21T16:54:47.591Z,100318.81
2022-09-21T16:57:14.894Z,100322.22
2022-09-21T16:59:42.845Z,100319.75
2022-09-21T17:02:12.222Z,100315.41
2022-09-21T17:04:40.171Z,100318.81
2022-09-21T17:07:13.450Z,100325.22
2022-09-21T17:09:44.373Z,100321.75
2022-09-21T17:12:17.532Z,100332.31
2022-09-21T17:14:47.028Z,100324.44
2022-09-21T17:17:20.922Z,100326.31
2022-09-21T17:19:50.113Z,100337.84
2022-09-21T17:22:18.437Z,100332.63
2022-09-21T17:24:51.366Z,100338.94
2022-09-21T17:27:21.833Z,100342.66
2022-09-21T17:29:50.034Z,100342.59
2022-09-21T17:32:21.679Z,100342.78
2022-09-21T17:35:01.858Z,100346.28
2022-09-21T17:37:29.914Z,100352.19
2022-09-21T17:39:57.538Z,100354.88
2022-09-21T17:42:25.977Z,100361.06
2022-09-21T17:45:12.389Z,100359.28
2022-09-21T17:47:40.855Z,100361.91
2022-09-21T17:50:17.558Z,100364.53
2022-09-21T17:53:04.291Z,100370.03
2022-09-21T17:55:32.075Z,100366.66
2022-09-21T17:58:25.772Z,100369.28
2022-09-21T18:01:12.795Z,100371.88
2022-09-21T18:03:44.487Z,100375.47
2022-09-21T18:06:12.438Z,100384.19
2022-09-21T18:08:40.966Z,100391.50
2022-09-21T18:11:27.024Z,100387.31
2022-09-21T18:14:06.937Z,100381.16
2022-09-21T18:17:11.541Z,100388.16
2022-09-21T18:19:55.027Z,100385.63
2022-09-21T18:22:55.114Z,100394.50
2022-09-21T18:25:32.482Z,100392.63
2022-09-21T18:28:03.405Z,100390.03
2022-09-21T18:30:31.765Z,100390.97
2022-09-21T18:33:27.695Z,100391.06
2022-09-21T18:36:27.606Z,100395.47
2022-09-21T18:39:13.740Z,100395.50
2022-09-21T18:41:46.752Z,100391.09
2022-09-21T18:44:13.937Z,100400.00
2022-09-21T18:47:03.216Z,100393.84
2022-09-21T18:49:38.510Z,100393.97
2022-09-21T18:52:24.868Z,100400.13
2022-09-21T18:54:52.905Z,100395.78
2022-09-21T18:57:23.332Z,100407.25
2022-09-21T18:59:50.920Z,100406.25
2022-09-21T19:02:20.268Z,100410.72
2022-09-21T19:04:49.252Z,100411.59
2022-09-21T19:07:35.282Z,100411.62
2022-09-21T19:10:14.243Z,100411.75
2022-09-21T19:13:03.127Z,100410.06
2022-09-21T19:16:01.999Z,100405.75
2022-09-21T19:18:46.043Z,100403.22
2022-09-21T19:21:32.604Z,100399.69
2022-09-21T19:24:05.789Z,100404.91
2022-09-21T19:26:55.894Z,100399.78
2022-09-21T19:29:40.931Z,100408.50
2022-09-21T19:32:17.641Z,100408.50
2022-09-21T19:34:45.353Z,100409.38
2022-09-21T19:37:13.032Z,100409.34
2022-09-21T19:39:40.700Z,100405.03
2022-09-21T19:42:09.823Z,100412.91
2022-09-21T19:45:01.861Z,100408.59
2022-09-21T19:47:31.196Z,100413.91
2022-09-21T19:50:15.900Z,100409.59
2022-09-21T19:52:43.874Z,100400.06
2022-09-21T19:55:35.523Z,100405.31
2022-09-21T19:58:21.975Z,100399.97
2022-09-21T20:00:54.768Z,100400.19
2022-09-21T20:03:31.460Z,100399.28
2022-09-21T20:06:06.782Z,100394.00
2022-09-21T20:09:06.165Z,100394.06
2022-09-21T20:11:44.612Z,100397.47
2022-09-21T20:14:20.746Z,100401.06
2022-09-21T20:16:55.407Z,100399.25
2022-09-21T20:19:44.417Z,100400.28
2022-09-21T20:22:17.502Z,100398.62
2022-09-21T20:24:52.109Z,100404.69
2022-09-21T20:27:34.816Z,100403.00
2022-09-21T20:30:11.856Z,100403.00
2022-09-21T20:32:41.331Z,100403.03
2022-09-21T20:35:30.581Z,100405.63
2022-09-21T20:38:02.296Z,100408.25
2022-09-21T20:40:31.153Z,100409.13
2022-09-21T20:42:59.076Z,100407.38
2022-09-21T20:45:26.743Z,100415.38
2022-09-21T20:47:55.212Z,100418.00
2022-09-21T20:50:25.467Z,100418.00
2022-09-21T20:52:52.750Z,100411.06
2022-09-21T20:55:20.480Z,100406.69
2022-09-21T20:57:47.864Z,100404.09
2022-09-21T21:00:16.753Z,100405.78
2022-09-21T21:02:44.395Z,100401.44
2022-09-21T21:05:11.746Z,100404.06
2022-09-21T21:07:59.257Z,100399.72
2022-09-21T21:10:26.830Z,100397.94
2022-09-21T21:12:54.149Z,100397.91
2022-09-21T21:15:21.432Z,100404.00
2022-09-21T21:17:49.246Z,100407.44
2022-09-21T21:20:17.266Z,100406.59
2022-09-21T21:22:45.867Z,100395.31
2022-09-21T21:25:13.448Z,100397.91
2022-09-21T21:27:40.755Z,100394.44
2022-09-21T21:30:09.588Z,100394.50
2022-09-21T21:32:37.573Z,100397.06
2022-09-21T21:35:05.711Z,100398.81
2022-09-21T21:37:33.256Z,100397.03
2022-09-21T21:40:01.381Z,100397.03
2022-09-21T21:42:29.573Z,100397.97
2022-09-21T21:44:57.054Z,100395.31
2022-09-21T21:47:41.101Z,100397.09
2022-09-21T21:50:09.796Z,100390.13
2022-09-21T21:52:37.744Z,100394.50
2022-09-21T21:55:05.771Z,100397.94
2022-09-21T21:57:33.261Z,100403.22
2022-09-21T22:00:00.999Z,100406.69
2022-09-21T22:02:29.226Z,100413.69
2022-09-21T22:04:56.864Z,100410.19
2022-09-21T22:07:24.144Z,100407.56
2022-09-21T22:09:51.437Z,100405.78
2022-09-21T22:12:18.994Z,100403.19
2022-09-21T22:14:47.628Z,100399.72
2022-09-21T22:17:14.969Z,100396.19
2022-09-21T22:19:42.913Z,100398.88
2022-09-21T22:22:10.187Z,100397.97
2022-09-21T22:24:37.470Z,100389.28
2022-09-21T22:27:05.091Z,100388.41
2022-09-21T22:29:32.358Z,100392.72
2022-09-21T22:32:00.663Z,100391.03
2022-09-21T22:34:28.263Z,100390.16
2022-09-21T22:36:56.368Z,100393.72
2022-09-21T22:39:23.718Z,100397.19
2022-09-21T22:41:51.243Z,100400.75
2022-09-21T22:44:18.586Z,100389.37
2022-09-21T22:46:45.838Z,100394.59
2022-09-21T22:49:13.387Z,100396.41
2022-09-21T22:51:40.670Z,100386.81
2022-09-21T22:54:08.061Z,100389.41
2022-09-21T22:56:35.727Z,100381.62
2022-09-21T22:59:04.230Z,100372.87
2022-09-21T23:01:39.922Z,100368.53
2022-09-21T23:04:10.130Z,100376.34
2022-09-21T23:06:39.340Z,100376.37
2022-09-21T23:09:09.224Z,100374.62
2022-09-21T23:11:43.002Z,100372.84
2022-09-21T23:14:11.141Z,100366.75
2022-09-21T23:16:38.535Z,100374.62
2022-09-21T23:19:06.030Z,100368.53
2022-09-21T23:21:33.568Z,100370.25
2022-09-21T23:24:02.441Z,100368.53
2022-09-21T23:26:31.314Z,100372.91
2022-09-21T23:29:00.631Z,100372.91
2022-09-21T23:31:28.824Z,100372.94
2022-09-21T23:33:58.141Z,100376.41
2022-09-21T23:36:30.674Z,100375.53
2022-09-21T23:38:58.645Z,100374.69
2022-09-21T23:41:28.360Z,100379.00
2022-09-21T23:43:56.524Z,100369.44
2022-09-21T23:46:32.396Z,100372.03
2022-09-21T23:49:00.782Z,100378.16
2022-09-21T23:51:29.888Z,100377.28
2022-09-21T23:53:58.046Z,100373.81
2022-09-21T23:56:25.747Z,100379.91
2022-09-21T23:58:53.118Z,100369.44
